Time;durP1;ratioP1;P1;durP2;ratioP2;P2;SDS_P1;SDS_P2;PMS_P1;PMS_P2;Temp;Humidity;BMP_temperature;BMP_pressure;BME280_temperature;BME280_humidity;BME280_pressure;Samples;Min_cycle;Max_cycle;Signal;HPM_P1;HPM_P2
2021/05/03 00:01:43;;;;;;;7.72;4.57;;;;;;;;;;6187789;23;20056;-46
2021/05/03 00:04:09;;;;;;;9.35;4.53;;;;;;;;;;6186884;23;20031;-47
2021/05/03 00:06:35;;;;;;;7.68;4.82;;;;;;;;;;6187306;23;20009;-46
2021/05/03 00:09:01;;;;;;;6.45;4.55;;;;;;;;;;6187105;23;20381;-46
2021/05/03 00:11:27;;;;;;;10.73;4.90;;;;;;;;;;6187334;23;20005;-47
2021/05/03 00:13:53;;;;;;;7.68;4.60;;;;;;;;;;6187472;23;20249;-46
2021/05/03 00:16:19;;;;;;;7.50;4.68;;;;;;;;;;6187255;23;20397;-47
2021/05/03 00:18:45;;;;;;;8.40;4.97;;;;;;;;;;6186398;23;20007;-46
2021/05/03 00:21:11;;;;;;;7.95;4.40;;;;;;;;;;6187143;23;20081;-46
2021/05/03 00:23:37;;;;;;;9.85;4.35;;;;;;;;;;6187133;23;20005;-46
2021/05/03 00:26:03;;;;;;;7.85;4.85;;;;;;;;;;6187442;23;20297;-46
2021/05/03 00:28:29;;;;;;;9.73;4.78;;;;;;;;;;6186949;23;19997;-46
2021/05/03 00:30:56;;;;;;;7.70;4.20;;;;;;;;;;6187112;23;20012;-47
2021/05/03 00:33:22;;;;;;;6.85;4.13;;;;;;;;;;6186793;23;20009;-47
2021/05/03 00:35:48;;;;;;;9.50;5.15;;;;;;;;;;6187347;23;20013;-46
2021/05/03 00:38:14;;;;;;;10.32;5.32;;;;;;;;;;6187274;23;20396;-46
2021/05/03 00:40:40;;;;;;;9.65;4.25;;;;;;;;;;6187002;23;20028;-46
2021/05/03 00:43:06;;;;;;;8.45;4.30;;;;;;;;;;6186847;23;20141;-46
2021/05/03 00:45:33;;;;;;;6.40;3.60;;;;;;;;;;6186849;23;20032;-47
2021/05/03 00:47:59;;;;;;;7.85;4.68;;;;;;;;;;6186734;23;20005;-46
2021/05/03 00:50:29;;;;;;;6.78;4.30;;;;;;;;;;6186453;23;20005;-47
2021/05/03 00:52:55;;;;;;;7.40;3.93;;;;;;;;;;6187249;23;20001;-46
2021/05/03 00:55:23;;;;;;;6.93;3.92;;;;;;;;;;6186376;23;20485;-46
2021/05/03 00:57:49;;;;;;;7.88;4.13;;;;;;;;;;6187169;23;20001;-47
2021/05/03 01:00:15;;;;;;;5.88;3.58;;;;;;;;;;6186388;23;20386;-46
2021/05/03 01:02:41;;;;;;;5.75;3.58;;;;;;;;;;6186233;23;20389;-46
2021/05/03 01:05:08;;;;;;;7.10;4.18;;;;;;;;;;6186354;23;20381;-46
2021/05/03 01:07:34;;;;;;;7.13;4.00;;;;;;;;;;6186740;23;20008;-46
2021/05/03 01:10:00;;;;;;;10.65;4.50;;;;;;;;;;6186475;23;19997;-46
2021/05/03 01:12:26;;;;;;;7.00;4.57;;;;;;;;;;6186490;23;20107;-46
2021/05/03 01:14:52;;;;;;;8.43;4.38;;;;;;;;;;6186487;23;20025;-46
2021/05/03 01:17:18;;;;;;;9.63;5.05;;;;;;;;;;6187020;23;20005;-46
2021/05/03 01:19:44;;;;;;;9.20;5.15;;;;;;;;;;6185991;23;20040;-46
2021/05/03 01:22:10;;;;;;;9.38;5.05;;;;;;;;;;6186938;23;20051;-46
2021/05/03 01:24:36;;;;;;;8.90;5.13;;;;;;;;;;6186290;23;20001;-46
2021/05/03 01:27:02;;;;;;;7.50;4.35;;;;;;;;;;6186801;23;20060;-46
2021/05/03 01:29:28;;;;;;;9.75;6.00;;;;;;;;;;6185988;23;20012;-46
2021/05/03 01:31:54;;;;;;;8.90;4.65;;;;;;;;;;6186279;23;20001;-45
2021/05/03 01:34:21;;;;;;;7.10;4.70;;;;;;;;;;6186367;23;20447;-47
2021/05/03 01:36:48;;;;;;;10.38;4.65;;;;;;;;;;6186818;23;20037;-46
2021/05/03 01:39:15;;;;;;;8.95;4.82;;;;;;;;;;6186159;23;20001;-46
2021/05/03 01:41:41;;;;;;;6.35;3.75;;;;;;;;;;6186549;23;19997;-47
2021/05/03 01:44:09;;;;;;;9.60;5.00;;;;;;;;;;6186522;23;20075;-46
2021/05/03 01:46:36;;;;;;;9.55;4.00;;;;;;;;;;6186370;23;20449;-46
2021/05/03 01:49:02;;;;;;;6.05;3.80;;;;;;;;;;6185747;23;20001;-47
2021/05/03 01:51:30;;;;;;;8.02;4.70;;;;;;;;;;6185454;23;20391;-46
2021/05/03 01:53:56;;;;;;;7.60;4.82;;;;;;;;;;6186397;23;20297;-46
2021/05/03 01:56:24;;;;;;;7.47;4.70;;;;;;;;;;6186339;23;20017;-47
2021/05/03 01:58:50;;;;;;;7.75;4.55;;;;;;;;;;6185620;23;20055;-46
2021/05/03 02:01:16;;;;;;;7.57;4.60;;;;;;;;;;6185553;23;20013;-46
2021/05/03 02:03:42;;;;;;;10.15;4.78;;;;;;;;;;6186584;23;20009;-46
2021/05/03 02:06:08;;;;;;;6.82;3.95;;;;;;;;;;6186056;23;20013;-46
2021/05/03 02:08:34;;;;;;;5.90;3.97;;;;;;;;;;6185849;23;20024;-46
2021/05/03 02:11:00;;;;;;;9.00;4.40;;;;;;;;;;6186126;23;20389;-47
2021/05/03 02:13:27;;;;;;;4.65;3.30;;;;;;;;;;6186221;23;20005;-46
2021/05/03 02:15:53;;;;;;;7.05;4.40;;;;;;;;;;6185595;23;20009;-47
2021/05/03 02:18:19;;;;;;;7.30;3.80;;;;;;;;;;6186157;23;20005;-46
2021/05/03 02:20:45;;;;;;;11.65;4.00;;;;;;;;;;6185693;23;20313;-46
2021/05/03 02:23:13;;;;;;;7.10;4.00;;;;;;;;;;6186299;23;20079;-46
2021/05/03 02:25:39;;;;;;;7.25;4.03;;;;;;;;;;6185313;23;20084;-46
2021/05/03 02:28:05;;;;;;;6.78;3.90;;;;;;;;;;6186007;23;20012;-47
2021/05/03 02:30:31;;;;;;;7.75;4.18;;;;;;;;;;6179864;23;19993;-46
2021/05/03 02:32:57;;;;;;;7.60;4.07;;;;;;;;;;6186244;23;20009;-47
2021/05/03 02:35:28;;;;;;;6.40;3.92;;;;;;;;;;6185931;23;20009;-46
2021/05/03 02:37:57;;;;;;;10.18;4.63;;;;;;;;;;6186195;23;19997;-47
2021/05/03 02:40:26;;;;;;;6.43;4.38;;;;;;;;;;6185426;23;20271;-47
2021/05/03 02:42:53;;;;;;;8.13;5.07;;;;;;;;;;6185849;23;20044;-47
2021/05/03 02:45:20;;;;;;;6.65;4.32;;;;;;;;;;6185933;23;20008;-46
2021/05/03 02:47:46;;;;;;;8.57;4.68;;;;;;;;;;6185897;23;20005;-46
2021/05/03 02:50:13;;;;;;;8.07;4.20;;;;;;;;;;6184998;23;20008;-46
2021/05/03 02:52:40;;;;;;;6.85;4.18;;;;;;;;;;6186133;23;20016;-46
2021/05/03 02:55:08;;;;;;;12.70;4.45;;;;;;;;;;6185246;23;20441;-46
2021/05/03 02:57:34;;;;;;;8.38;4.97;;;;;;;;;;6186040;23;20001;-46
2021/05/03 03:00:00;;;;;;;7.10;4.18;;;;;;;;;;6185164;23;20008;-46
2021/05/03 03:02:26;;;;;;;8.93;4.90;;;;;;;;;;6184696;23;20031;-47
2021/05/03 03:04:52;;;;;;;7.20;4.43;;;;;;;;;;6185684;23;20016;-47
2021/05/03 03:07:18;;;;;;;6.55;4.05;;;;;;;;;;6185448;23;20354;-46
2021/05/03 03:09:44;;;;;;;13.98;4.47;;;;;;;;;;6185267;23;20011;-46
2021/05/03 03:12:11;;;;;;;9.02;5.80;;;;;;;;;;6185778;23;20001;-46
2021/05/03 03:14:37;;;;;;;9.60;4.97;;;;;;;;;;6185403;23;20408;-46
2021/05/03 03:17:04;;;;;;;9.35;5.30;;;;;;;;;;6185632;23;20074;-47
2021/05/03 03:19:30;;;;;;;8.00;5.00;;;;;;;;;;6184727;23;20008;-46
2021/05/03 03:21:56;;;;;;;9.23;5.13;;;;;;;;;;6185486;23;20286;-46
2021/05/03 03:24:22;;;;;;;7.45;5.20;;;;;;;;;;6185776;23;20467;-46
2021/05/03 03:26:48;;;;;;;8.95;4.55;;;;;;;;;;6180791;23;20005;-47
2021/05/03 03:29:14;;;;;;;8.13;5.03;;;;;;;;;;6184695;23;19997;-46
2021/05/03 03:31:40;;;;;;;8.13;4.82;;;;;;;;;;6185407;23;20009;-46
2021/05/03 03:34:07;;;;;;;9.02;5.15;;;;;;;;;;6185700;23;20270;-46
2021/05/03 03:36:33;;;;;;;7.97;4.78;;;;;;;;;;6185016;23;20024;-47
2021/05/03 03:39:00;;;;;;;9.23;4.88;;;;;;;;;;6185154;23;20020;-46
2021/05/03 03:41:26;;;;;;;9.38;4.85;;;;;;;;;;6185010;23;20309;-47
2021/05/03 03:43:52;;;;;;;10.55;5.43;;;;;;;;;;6184696;23;20156;-46
2021/05/03 03:46:20;;;;;;;7.72;4.32;;;;;;;;;;6184160;23;20536;-46
2021/05/03 03:48:46;;;;;;;9.20;5.32;;;;;;;;;;6184596;23;20397;-47
2021/05/03 03:51:12;;;;;;;8.20;4.65;;;;;;;;;;6185380;23;20072;-47
2021/05/03 03:53:38;;;;;;;8.48;5.05;;;;;;;;;;6185756;23;20028;-46
2021/05/03 03:56:04;;;;;;;9.60;5.03;;;;;;;;;;6185519;23;20020;-46
2021/05/03 03:58:30;;;;;;;7.43;4.70;;;;;;;;;;6184720;23;20001;-46
2021/05/03 04:00:56;;;;;;;7.75;4.28;;;;;;;;;;6185344;23;20001;-46
2021/05/03 04:03:24;;;;;;;7.68;4.65;;;;;;;;;;6185748;23;20011;-46
2021/05/03 04:06:17;;;;;;;8.63;4.65;;;;;;;;;;6185337;23;20028;-47
2021/05/03 04:08:53;;;;;;;10.35;4.53;;;;;;;;;;6185329;23;20024;-46
2021/05/03 04:12:09;;;;;;;8.38;4.38;;;;;;;;;;6185637;23;20001;-46
2021/05/03 04:25:24;;;;;;;7.50;4.90;;;;;;;;;;6195349;23;20009;-46
2021/05/03 04:27:38;;;;;;;7.07;4.18;;;;;;;;;;6179927;23;20265;-47
2021/05/03 04:30:06;;;;;;;8.52;5.32;;;;;;;;;;6184855;23;20004;-46
2021/05/03 04:32:32;;;;;;;10.55;5.30;;;;;;;;;;6183958;23;20120;-46
2021/05/03 04:34:58;;;;;;;8.27;4.90;;;;;;;;;;6185582;23;20070;-47
2021/05/03 04:37:24;;;;;;;11.32;5.22;;;;;;;;;;6186315;23;20016;-46
2021/05/03 04:39:50;;;;;;;8.02;4.75;;;;;;;;;;6186793;23;20400;-46
2021/05/03 04:42:16;;;;;;;8.45;4.70;;;;;;;;;;6186501;23;20001;-46
2021/05/03 04:44:42;;;;;;;12.57;5.38;;;;;;;;;;6187052;23;20028;-46
2021/05/03 04:47:09;;;;;;;11.35;5.47;;;;;;;;;;6186696;23;20004;-46
2021/05/03 04:49:34;;;;;;;9.77;5.10;;;;;;;;;;6186523;23;20027;-46
2021/05/03 04:52:01;;;;;;;10.27;5.38;;;;;;;;;;6187041;23;20381;-46
2021/05/03 04:54:27;;;;;;;10.18;5.75;;;;;;;;;;6186937;23;20008;-46
2021/05/03 04:56:53;;;;;;;8.68;4.80;;;;;;;;;;6186004;23;20017;-46
2021/05/03 04:59:19;;;;;;;7.90;4.85;;;;;;;;;;6186432;23;20007;-46
2021/05/03 05:01:45;;;;;;;14.07;5.70;;;;;;;;;;6186655;23;20401;-46
2021/05/03 05:04:11;;;;;;;10.27;5.35;;;;;;;;;;6187169;23;20072;-47
2021/05/03 05:06:37;;;;;;;8.00;4.93;;;;;;;;;;6186409;23;20319;-46
2021/05/03 05:09:04;;;;;;;11.32;5.40;;;;;;;;;;6186712;23;20005;-46
2021/05/03 05:11:33;;;;;;;7.93;4.90;;;;;;;;;;6186577;23;20063;-46
2021/05/03 05:13:59;;;;;;;8.38;5.20;;;;;;;;;;6187033;23;20028;-46
2021/05/03 05:16:25;;;;;;;9.73;4.82;;;;;;;;;;6186541;23;20032;-46
2021/05/03 05:18:51;;;;;;;7.53;4.20;;;;;;;;;;6186674;23;20001;-46
2021/05/03 05:21:18;;;;;;;8.52;5.22;;;;;;;;;;6186624;23;20055;-46
2021/05/03 05:23:44;;;;;;;7.95;4.25;;;;;;;;;;6186629;23;20024;-47
2021/05/03 05:26:10;;;;;;;6.40;3.85;;;;;;;;;;6186476;23;20460;-47
2021/05/03 05:28:36;;;;;;;6.07;4.15;;;;;;;;;;6186155;23;19997;-47
2021/05/03 05:31:03;;;;;;;7.85;4.53;;;;;;;;;;6186982;23;20029;-47
2021/05/03 05:33:29;;;;;;;7.40;4.25;;;;;;;;;;6186403;23;20077;-46
2021/05/03 05:35:55;;;;;;;9.73;4.70;;;;;;;;;;6186780;23;20021;-46
2021/05/03 05:38:21;;;;;;;8.95;5.05;;;;;;;;;;6185763;23;20313;-47
2021/05/03 05:40:47;;;;;;;7.35;4.50;;;;;;;;;;6186273;23;20001;-47
2021/05/03 05:43:14;;;;;;;10.32;5.15;;;;;;;;;;6186645;23;20348;-47
2021/05/03 05:45:40;;;;;;;15.25;6.07;;;;;;;;;;6186843;23;20005;-46
2021/05/03 05:48:06;;;;;;;15.35;6.50;;;;;;;;;;6185938;23;20013;-46
2021/05/03 05:50:32;;;;;;;12.63;6.45;;;;;;;;;;6185846;23;20012;-46
2021/05/03 05:52:58;;;;;;;20.33;7.90;;;;;;;;;;6186361;23;20001;-47
2021/05/03 05:55:24;;;;;;;14.40;7.35;;;;;;;;;;6186546;23;20012;-46
2021/05/03 05:57:50;;;;;;;18.55;7.13;;;;;;;;;;6186512;23;20001;-46
2021/05/03 06:00:17;;;;;;;31.30;7.82;;;;;;;;;;6186052;23;20001;-47
2021/05/03 06:02:43;;;;;;;16.38;7.68;;;;;;;;;;6186094;23;20011;-46
2021/05/03 06:05:09;;;;;;;18.98;8.52;;;;;;;;;;6186286;23;20332;-47
2021/05/03 06:07:35;;;;;;;20.77;9.35;;;;;;;;;;6185949;23;20051;-46
2021/05/03 06:10:01;;;;;;;17.67;7.10;;;;;;;;;;6185391;23;20037;-47
2021/05/03 06:12:27;;;;;;;18.45;7.95;;;;;;;;;;6186051;23;20012;-47
2021/05/03 06:14:53;;;;;;;10.77;6.32;;;;;;;;;;6186416;23;19997;-46
2021/05/03 06:17:20;;;;;;;10.60;6.00;;;;;;;;;;6186193;23;20035;-46
2021/05/03 06:19:46;;;;;;;10.88;5.45;;;;;;;;;;6185319;23;20416;-47
2021/05/03 06:22:12;;;;;;;13.02;6.90;;;;;;;;;;6185778;23;20008;-47
2021/05/03 06:24:38;;;;;;;16.98;7.00;;;;;;;;;;6186038;23;20342;-46
2021/05/03 06:27:04;;;;;;;7.68;3.90;;;;;;;;;;6185724;23;20393;-47
2021/05/03 06:29:30;;;;;;;11.13;5.30;;;;;;;;;;6185464;23;20302;-46
2021/05/03 06:31:59;;;;;;;2.35;2.15;;;;;;;;;;6186339;23;20005;-46
2021/05/03 06:34:31;;;;;;;20.50;8.82;;;;;;;;;;6185962;23;19997;-47
2021/05/03 06:36:57;;;;;;;18.40;8.48;;;;;;;;;;6185887;23;20089;-46
2021/05/03 06:39:23;;;;;;;11.40;4.25;;;;;;;;;;6185701;23;20001;-47
2021/05/03 06:41:50;;;;;;;13.07;6.32;;;;;;;;;;6185623;23;20051;-46
2021/05/03 06:44:16;;;;;;;21.17;10.40;;;;;;;;;;6183727;23;20001;-47
2021/05/03 06:46:42;;;;;;;18.20;7.13;;;;;;;;;;6185422;23;20008;-46
2021/05/03 06:49:09;;;;;;;7.88;2.30;;;;;;;;;;6184439;23;20072;-47
2021/05/03 06:51:35;;;;;;;11.75;6.15;;;;;;;;;;6184242;23;20005;-47
2021/05/03 06:54:01;;;;;;;10.85;5.78;;;;;;;;;;6185133;23;20071;-46
2021/05/03 06:56:28;;;;;;;18.40;10.02;;;;;;;;;;6184775;23;20071;-47
2021/05/03 06:58:54;;;;;;;16.92;7.00;;;;;;;;;;6184337;23;20401;-47
2021/05/03 07:01:21;;;;;;;13.73;6.57;;;;;;;;;;6183596;23;20417;-47
2021/05/03 07:03:47;;;;;;;27.30;4.80;;;;;;;;;;6185101;23;20083;-46
2021/05/03 07:06:13;;;;;;;10.27;5.47;;;;;;;;;;6185022;23;20005;-47
2021/05/03 07:08:39;;;;;;;10.45;6.03;;;;;;;;;;6184593;23;19997;-47
2021/05/03 07:11:11;;;;;;;17.48;8.98;;;;;;;;;;6184248;23;20337;-47
2021/05/03 07:13:37;;;;;;;22.50;5.43;;;;;;;;;;6185503;23;20005;-46
2021/05/03 07:16:03;;;;;;;13.23;5.80;;;;;;;;;;6184790;23;20120;-47
2021/05/03 07:18:29;;;;;;;16.20;7.32;;;;;;;;;;6183802;23;20001;-47
2021/05/03 07:20:55;;;;;;;16.08;6.80;;;;;;;;;;6185090;23;20017;-47
2021/05/03 07:23:21;;;;;;;16.25;7.47;;;;;;;;;;6185695;23;20079;-47
2021/05/03 07:25:47;;;;;;;12.13;5.57;;;;;;;;;;6185844;23;20389;-47
2021/05/03 07:28:13;;;;;;;15.73;7.35;;;;;;;;;;6184965;23;20064;-46
2021/05/03 07:30:39;;;;;;;14.98;7.03;;;;;;;;;;6185104;23;20009;-47
2021/05/03 07:33:05;;;;;;;16.35;7.88;;;;;;;;;;6184708;23;20008;-46
2021/05/03 07:35:31;;;;;;;12.50;5.60;;;;;;;;;;6185172;23;20005;-47
2021/05/03 07:37:57;;;;;;;7.35;4.45;;;;;;;;;;6185434;23;20412;-47
2021/05/03 07:40:23;;;;;;;6.43;3.47;;;;;;;;;;6185189;23;20013;-47
2021/05/03 07:42:49;;;;;;;11.82;6.00;;;;;;;;;;6185693;23;20031;-47
2021/05/03 07:45:15;;;;;;;15.85;7.95;;;;;;;;;;6184886;23;20001;-46
2021/05/03 07:47:42;;;;;;;22.40;10.32;;;;;;;;;;6184636;23;20001;-46
2021/05/03 07:50:08;;;;;;;13.38;7.32;;;;;;;;;;6184728;23;20072;-47
2021/05/03 07:52:34;;;;;;;15.85;7.63;;;;;;;;;;6184705;23;20389;-47
2021/05/03 07:55:00;;;;;;;19.50;9.32;;;;;;;;;;6185134;23;20017;-47
2021/05/03 07:57:27;;;;;;;16.35;8.75;;;;;;;;;;6184832;23;20282;-46
2021/05/03 07:59:53;;;;;;;21.02;6.78;;;;;;;;;;6184363;23;20008;-47
2021/05/03 08:02:19;;;;;;;12.77;6.85;;;;;;;;;;6184892;23;20005;-47
2021/05/03 08:04:45;;;;;;;9.10;4.85;;;;;;;;;;6184947;23;20377;-47
2021/05/03 08:07:11;;;;;;;5.38;2.97;;;;;;;;;;6185324;23;20419;-46
2021/05/03 08:09:38;;;;;;;8.00;4.15;;;;;;;;;;6184572;23;20020;-47
2021/05/03 08:12:06;;;;;;;1.20;1.08;;;;;;;;;;6185421;23;20451;-46
2021/05/03 08:14:32;;;;;;;3.72;3.08;;;;;;;;;;6187199;23;20075;-46
2021/05/03 08:17:03;;;;;;;10.35;5.00;;;;;;;;;;6186326;23;20009;-47
2021/05/03 08:19:29;;;;;;;15.88;6.93;;;;;;;;;;6186367;23;20005;-47
2021/05/03 08:21:56;;;;;;;10.93;6.88;;;;;;;;;;6187056;23;20401;-46
2021/05/03 08:24:22;;;;;;;14.60;7.25;;;;;;;;;;6187252;23;20001;-47
2021/05/03 08:26:48;;;;;;;8.05;3.80;;;;;;;;;;6186979;23;20028;-47
2021/05/03 08:29:14;;;;;;;8.50;5.20;;;;;;;;;;6185659;23;20373;-47
2021/05/03 08:31:41;;;;;;;9.05;4.50;;;;;;;;;;6185741;23;20009;-47
2021/05/03 08:34:07;;;;;;;10.63;6.18;;;;;;;;;;6185952;23;20356;-47
2021/05/03 08:36:33;;;;;;;12.13;6.50;;;;;;;;;;6186194;23;20321;-47
2021/05/03 08:38:59;;;;;;;9.05;5.28;;;;;;;;;;6186800;23;19997;-46
2021/05/03 08:41:25;;;;;;;9.32;2.67;;;;;;;;;;6186642;23;20001;-46
2021/05/03 08:43:52;;;;;;;9.95;4.50;;;;;;;;;;6186497;23;19997;-47
2021/05/03 08:46:28;;;;;;;3.78;2.60;;;;;;;;;;6186632;23;20480;-47
2021/05/03 08:52:14;;;;;;;6.22;1.98;;;;;;;;;;6195922;23;20009;-46
2021/05/03 08:56:48;;;;;;;6.30;3.58;;;;;;;;;;6186159;23;20358;-46
2021/05/03 08:59:15;;;;;;;13.57;6.55;;;;;;;;;;6185191;23;20001;-47
2021/05/03 09:01:46;;;;;;;9.13;5.50;;;;;;;;;;6185508;23;20008;-46
2021/05/03 09:04:12;;;;;;;8.52;4.43;;;;;;;;;;6186559;23;20397;-46
2021/05/03 09:06:38;;;;;;;7.55;3.88;;;;;;;;;;6186795;23;20072;-46
2021/05/03 09:09:10;;;;;;;9.07;4.85;;;;;;;;;;6186053;23;20107;-48
2021/05/03 09:11:37;;;;;;;6.85;3.97;;;;;;;;;;6186825;23;20005;-47
2021/05/03 09:14:07;;;;;;;11.57;6.00;;;;;;;;;;6186575;23;20067;-46
2021/05/03 09:16:33;;;;;;;11.50;6.18;;;;;;;;;;6186402;23;20340;-47
2021/05/03 09:19:01;;;;;;;10.05;5.38;;;;;;;;;;6186435;23;20456;-47
2021/05/03 09:21:31;;;;;;;4.38;2.83;;;;;;;;;;6186210;23;20012;-47
2021/05/03 09:24:23;;;;;;;9.48;5.03;;;;;;;;;;6186252;23;20001;-47
2021/05/03 09:27:01;;;;;;;6.68;4.32;;;;;;;;;;6186614;23;20009;-46
2021/05/03 09:29:27;;;;;;;6.85;3.63;;;;;;;;;;6185471;23;20080;-47
2021/05/03 09:31:57;;;;;;;6.97;3.60;;;;;;;;;;6186583;23;20036;-46
2021/05/03 09:34:27;;;;;;;7.10;3.90;;;;;;;;;;6186315;23;19997;-46
2021/05/03 09:36:53;;;;;;;9.23;4.60;;;;;;;;;;6185901;23;20013;-47
2021/05/03 09:39:39;;;;;;;6.22;4.10;;;;;;;;;;6185364;23;20003;-47
2021/05/03 09:42:05;;;;;;;8.52;4.15;;;;;;;;;;6186729;23;20008;-46
2021/05/03 09:44:31;;;;;;;10.68;4.65;;;;;;;;;;6186501;23;20024;-47
2021/05/03 09:46:58;;;;;;;9.90;5.15;;;;;;;;;;6186627;23;20044;-47
2021/05/03 09:49:24;;;;;;;8.80;4.93;;;;;;;;;;6186064;23;20052;-46
2021/05/03 09:51:51;;;;;;;9.63;4.88;;;;;;;;;;6186168;23;19997;-47
2021/05/03 09:54:25;;;;;;;6.93;3.90;;;;;;;;;;6186043;23;20084;-47
2021/05/03 09:56:55;;;;;;;6.63;3.30;;;;;;;;;;6185949;23;20020;-47
2021/05/03 09:59:25;;;;;;;7.05;3.28;;;;;;;;;;6184813;23;19993;-47
2021/05/03 10:02:00;;;;;;;8.93;4.78;;;;;;;;;;6184375;23;20005;-46
2021/05/03 10:04:27;;;;;;;3.65;2.22;;;;;;;;;;6185494;23;20460;-47
2021/05/03 10:06:53;;;;;;;5.05;3.28;;;;;;;;;;6185756;23;20059;-46
2021/05/03 10:09:19;;;;;;;7.72;3.58;;;;;;;;;;6185765;23;20091;-46
2021/05/03 10:11:45;;;;;;;7.72;3.22;;;;;;;;;;6186140;23;20412;-47
2021/05/03 10:14:11;;;;;;;6.07;3.60;;;;;;;;;;6185688;23;20001;-47
2021/05/03 10:16:37;;;;;;;8.38;3.30;;;;;;;;;;6185858;23;20013;-47
2021/05/03 10:19:04;;;;;;;5.47;2.97;;;;;;;;;;6185603;23;20076;-46
2021/05/03 10:21:30;;;;;;;7.80;3.85;;;;;;;;;;6184648;23;20009;-47
2021/05/03 10:23:56;;;;;;;5.10;2.65;;;;;;;;;;6186049;23;20004;-47
2021/05/03 10:26:25;;;;;;;3.00;2.60;;;;;;;;;;6185598;23;20406;-47
2021/05/03 10:28:55;;;;;;;7.07;3.03;;;;;;;;;;6185550;23;20001;-46
2021/05/03 10:31:22;;;;;;;4.15;2.20;;;;;;;;;;6185375;23;20043;-46
2021/05/03 10:33:48;;;;;;;4.68;2.95;;;;;;;;;;6186091;23;20068;-47
2021/05/03 10:36:32;;;;;;;5.72;2.92;;;;;;;;;;6185314;23;20405;-46
2021/05/03 10:38:59;;;;;;;3.25;2.25;;;;;;;;;;6184221;23;20546;-47
2021/05/03 10:41:31;;;;;;;5.60;2.58;;;;;;;;;;6185387;23;19993;-46
2021/05/03 10:44:23;;;;;;;4.82;2.92;;;;;;;;;;6185468;23;20024;-47
2021/05/03 10:46:56;;;;;;;4.35;2.83;;;;;;;;;;6184240;23;20005;-46
2021/05/03 10:49:42;;;;;;;6.28;3.60;;;;;;;;;;6183790;23;20012;-47
2021/05/03 10:52:12;;;;;;;2.97;1.83;;;;;;;;;;6184601;23;20004;-47
2021/05/03 10:54:43;;;;;;;6.75;3.10;;;;;;;;;;6185522;23;19997;-46
2021/05/03 10:57:19;;;;;;;2.78;1.85;;;;;;;;;;6185525;23;20534;-47
2021/05/03 10:59:48;;;;;;;5.40;3.30;;;;;;;;;;6184860;23;20005;-46
2021/05/03 11:02:15;;;;;;;7.93;3.17;;;;;;;;;;6185855;23;20005;-47
2021/05/03 11:05:01;;;;;;;4.68;3.10;;;;;;;;;;6185597;23;20005;-46
2021/05/03 11:07:27;;;;;;;3.28;2.45;;;;;;;;;;6185156;23;20008;-46
2021/05/03 11:09:53;;;;;;;4.68;2.97;;;;;;;;;;6185034;23;20005;-47
2021/05/03 11:12:22;;;;;;;5.07;2.60;;;;;;;;;;6185505;23;20114;-46
2021/05/03 11:15:20;;;;;;;6.22;2.20;;;;;;;;;;6185508;23;20008;-47
2021/05/03 11:18:20;;;;;;;4.57;2.80;;;;;;;;;;6122885;23;20022;-47
2021/05/03 11:21:13;;;;;;;2.72;1.95;;;;;;;;;;6093833;23;20017;-46
2021/05/03 11:23:40;;;;;;;5.38;3.15;;;;;;;;;;6094263;23;20331;-47
2021/05/03 11:26:21;;;;;;;5.15;3.38;;;;;;;;;;6093922;23;20006;-47
2021/05/03 11:28:47;;;;;;;7.28;3.08;;;;;;;;;;6093179;23;20022;-47
2021/05/03 11:31:15;;;;;;;6.85;1.42;;;;;;;;;;6094181;23;20050;-46
2021/05/03 11:33:50;;;;;;;1.17;0.93;;;;;;;;;;6093701;23;20087;-47
2021/05/03 11:36:31;;;;;;;2.92;1.83;;;;;;;;;;6094200;23;20105;-47
2021/05/03 11:41:33;;;;;;;3.42;2.15;;;;;;;;;;6094010;23;20038;-46
2021/05/03 11:46:37;;;;;;;0.75;0.75;;;;;;;;;;6095221;23;20085;-47
2021/05/03 11:49:15;;;;;;;1.83;0.73;;;;;;;;;;6096572;23;20029;-47
2021/05/03 11:51:53;;;;;;;4.22;2.17;;;;;;;;;;6097154;23;20034;-47
2021/05/03 11:54:25;;;;;;;3.88;2.17;;;;;;;;;;6114384;23;20013;-46
2021/05/03 11:57:13;;;;;;;4.97;2.53;;;;;;;;;;6170852;23;20084;-47
2021/05/03 11:59:39;;;;;;;2.58;1.60;;;;;;;;;;6188181;23;19994;-46
2021/05/03 12:02:06;;;;;;;6.60;2.90;;;;;;;;;;6188616;23;20009;-47
2021/05/03 12:04:32;;;;;;;7.78;3.25;;;;;;;;;;6188574;23;20290;-46
2021/05/03 12:06:58;;;;;;;5.00;2.90;;;;;;;;;;6188935;23;20298;-47
2021/05/03 12:09:25;;;;;;;5.97;2.47;;;;;;;;;;6188392;23;20389;-46
2021/05/03 12:12:00;;;;;;;4.80;3.03;;;;;;;;;;6188520;23;20001;-46
2021/05/03 12:14:38;;;;;;;0.38;0.38;;;;;;;;;;6188665;23;20064;-47
2021/05/03 12:17:34;;;;;;;3.55;2.78;;;;;;;;;;6188706;23;20016;-46
2021/05/03 12:20:11;;;;;;;3.90;1.60;;;;;;;;;;6138848;23;20108;-46
2021/05/03 12:22:37;;;;;;;4.28;2.35;;;;;;;;;;6155295;23;20472;-46
2021/05/03 12:25:06;;;;;;;7.28;2.50;;;;;;;;;;6155965;23;20433;-46
2021/05/03 12:27:33;;;;;;;3.35;2.55;;;;;;;;;;6155569;23;20008;-47
2021/05/03 12:29:59;;;;;;;4.13;2.88;;;;;;;;;;6155604;23;20024;-46
2021/05/03 12:32:30;;;;;;;6.90;3.08;;;;;;;;;;6155668;23;20309;-47
2021/05/03 12:34:57;;;;;;;4.40;2.95;;;;;;;;;;6155506;23;20009;-47
2021/05/03 12:37:24;;;;;;;3.78;2.63;;;;;;;;;;6155414;23;20116;-46
2021/05/03 12:40:04;;;;;;;5.20;2.70;;;;;;;;;;6155054;23;20040;-47
2021/05/03 12:42:31;;;;;;;8.05;3.08;;;;;;;;;;6155329;23;20002;-46
2021/05/03 12:44:59;;;;;;;7.57;3.25;;;;;;;;;;6155605;23;20008;-47
2021/05/03 12:50:16;;;;;;;4.97;3.35;;;;;;;;;;6155321;23;20013;-47
2021/05/03 12:52:49;;;;;;;5.05;2.80;;;;;;;;;;6155459;23;20029;-46
2021/05/03 12:55:35;;;;;;;6.60;3.17;;;;;;;;;;6157064;23;20001;-47
2021/05/03 12:58:15;;;;;;;8.35;3.45;;;;;;;;;;6187891;23;20013;-47
2021/05/03 13:01:04;;;;;;;4.07;2.97;;;;;;;;;;6186723;23;20004;-47
2021/05/03 13:03:56;;;;;;;4.97;3.00;;;;;;;;;;6186613;23;20309;-47
2021/05/03 13:29:07;;;;;;;0.82;0.82;;;;;;;;;;6185887;23;20309;-46
2021/05/03 13:31:34;;;;;;;3.60;2.40;;;;;;;;;;6186747;23;20012;-47
2021/05/03 13:34:01;;;;;;;6.03;2.00;;;;;;;;;;6186311;23;20001;-47
2021/05/03 13:36:27;;;;;;;1.30;0.77;;;;;;;;;;6186749;23;20040;-46
2021/05/03 13:38:53;;;;;;;16.63;2.55;;;;;;;;;;6185554;23;20029;-46
2021/05/03 13:41:19;;;;;;;3.67;1.65;;;;;;;;;;6186354;23;20024;-47
2021/05/03 13:43:46;;;;;;;3.05;2.05;;;;;;;;;;6186065;23;20421;-47
2021/05/03 13:46:12;;;;;;;4.28;2.30;;;;;;;;;;6186408;23;20026;-47
2021/05/03 13:48:39;;;;;;;2.83;2.00;;;;;;;;;;6186250;23;20008;-47
2021/05/03 13:51:08;;;;;;;1.73;1.23;;;;;;;;;;6186555;23;20076;-47
2021/05/03 13:53:35;;;;;;;5.55;1.90;;;;;;;;;;6185559;23;20547;-46
2021/05/03 13:56:01;;;;;;;2.70;1.90;;;;;;;;;;6186212;23;20402;-47
2021/05/03 13:58:27;;;;;;;2.92;1.38;;;;;;;;;;6185959;23;20005;-46
2021/05/03 14:00:53;;;;;;;1.55;1.38;;;;;;;;;;6186262;23;20001;-47
2021/05/03 14:03:19;;;;;;;2.05;1.50;;;;;;;;;;6186228;23;19997;-47
2021/05/03 14:05:45;;;;;;;3.22;2.20;;;;;;;;;;6186045;23;20001;-46
2021/05/03 14:08:11;;;;;;;0.75;0.75;;;;;;;;;;6185547;23;20019;-46
2021/05/03 14:10:37;;;;;;;8.82;1.83;;;;;;;;;;6185905;23;20073;-47
2021/05/03 14:13:04;;;;;;;2.38;1.80;;;;;;;;;;6186453;23;20340;-47
2021/05/03 14:15:32;;;;;;;1.75;1.23;;;;;;;;;;6186163;23;20001;-47
2021/05/03 14:17:58;;;;;;;3.47;2.58;;;;;;;;;;6186146;23;20009;-47
2021/05/03 14:20:25;;;;;;;11.23;2.40;;;;;;;;;;6185347;23;20005;-47
2021/05/03 14:22:52;;;;;;;2.83;2.20;;;;;;;;;;6186035;23;20420;-47
2021/05/03 14:25:19;;;;;;;2.35;2.03;;;;;;;;;;6185831;23;20033;-46
2021/05/03 14:27:46;;;;;;;2.25;1.40;;;;;;;;;;6186381;23;20388;-47
2021/05/03 14:30:58;;;;;;;3.88;2.60;;;;;;;;;;6182375;23;20005;-47
2021/05/03 14:33:24;;;;;;;12.60;2.72;;;;;;;;;;6173020;23;20024;-46
2021/05/03 14:35:50;;;;;;;4.53;3.17;;;;;;;;;;6185894;23;20009;-47
2021/05/03 14:38:17;;;;;;;4.07;1.88;;;;;;;;;;6185237;23;20012;-46
2021/05/03 14:40:43;;;;;;;1.40;1.25;;;;;;;;;;6185752;23;20001;-46
2021/05/03 14:43:10;;;;;;;3.15;2.30;;;;;;;;;;6185799;23;20004;-46
2021/05/03 14:45:52;;;;;;;4.22;2.42;;;;;;;;;;6184188;23;20068;-46
2021/05/03 14:48:28;;;;;;;3.47;1.80;;;;;;;;;;6185855;23;20112;-46
2021/05/03 14:51:15;;;;;;;2.85;1.70;;;;;;;;;;6186239;23;20016;-47
2021/05/03 14:53:56;;;;;;;3.53;1.92;;;;;;;;;;6185948;23;20024;-46
2021/05/03 14:56:22;;;;;;;5.35;2.28;;;;;;;;;;6183812;23;20428;-46
2021/05/03 14:58:48;;;;;;;3.55;2.83;;;;;;;;;;6185368;23;20012;-46
2021/05/03 15:01:14;;;;;;;6.68;3.00;;;;;;;;;;6185900;23;20001;-46
2021/05/03 15:03:41;;;;;;;3.97;2.45;;;;;;;;;;6185939;23;20001;-46
2021/05/03 15:06:10;;;;;;;3.92;2.10;;;;;;;;;;6185575;23;20027;-46
2021/05/03 15:08:36;;;;;;;5.95;2.08;;;;;;;;;;6185121;23;20092;-46
2021/05/03 15:11:02;;;;;;;5.38;1.52;;;;;;;;;;6186039;23;20001;-47
2021/05/03 15:16:37;;;;;;;2.95;1.83;;;;;;;;;;6184958;23;20360;-46
2021/05/03 15:23:48;;;;;;;9.25;2.75;;;;;;;;;;6156097;23;20055;-47
2021/05/03 15:26:26;;;;;;;2.63;2.17;;;;;;;;;;6155542;23;20316;-47
2021/05/03 15:29:18;;;;;;;4.40;2.20;;;;;;;;;;6155430;23;20305;-46
2021/05/03 15:34:13;;;;;;;3.50;2.40;;;;;;;;;;6155351;23;20088;-46
2021/05/03 15:36:39;;;;;;;2.33;1.80;;;;;;;;;;6156020;23;20024;-48
2021/05/03 15:39:05;;;;;;;3.40;2.38;;;;;;;;;;6155444;23;20001;-46
2021/05/03 15:41:31;;;;;;;2.65;2.10;;;;;;;;;;6155672;23;20009;-47
2021/05/03 15:43:58;;;;;;;4.03;2.28;;;;;;;;;;6155119;23;20032;-46
2021/05/03 15:46:24;;;;;;;4.88;3.00;;;;;;;;;;6155145;23;20013;-47